Terminal Aerodrome Forecast
Issued by NWS Corpus Christi, TX

Home | Current Version | Previous Version | Text Only | Print | Product List | Glossary On
Versions: 1 2 3 4 5 6 7 8 9 10 11 12
000
FTUS44 KCRP 261124
TAFVCT
TAF
KVCT 261124Z 2612/2712 VRB04KT P6SM VCSH SCT030 BKN250
      TEMPO 2612/2614 6SM -RA BR
     FM261400 18003KT P6SM VCTS SCT020CB BKN050
      TEMPO 2616/2620 TSRA OVC020CB
     FM270200 16005KT P6SM FEW030 BKN250
     FM271000 VRB04KT P6SM VCSH SCT020 BKN250=

USA.gov is the U.S. government's official web portal to all federal, state and local government web resources and services.